createdAt,value
2022-09-15T00:00:28.753Z,70.05
2022-09-15T00:01:28.757Z,70.05
2022-09-15T00:02:28.892Z,70.05
2022-09-15T00:03:28.709Z,70.05
2022-09-15T00:04:28.700Z,70.05
2022-09-15T00:05:28.686Z,70.05
2022-09-15T00:06:28.672Z,70.05
2022-09-15T00:07:28.657Z,70.05
2022-09-15T00:08:28.644Z,70.05
2022-09-15T00:09:28.629Z,70.05
2022-09-15T00:10:28.617Z,70.05
2022-09-15T00:11:28.603Z,70.05
2022-09-15T00:12:28.614Z,70.05
2022-09-15T00:13:28.576Z,70.05
2022-09-15T00:14:28.564Z,70.05
2022-09-15T00:15:28.553Z,70.05
2022-09-15T00:16:28.592Z,70.05
2022-09-15T00:17:28.522Z,70.05
2022-09-15T00:18:28.510Z,70.05
2022-09-15T00:19:28.498Z,70.05
2022-09-15T00:20:28.484Z,70.05
2022-09-15T00:21:28.470Z,69.95
2022-09-15T00:22:28.458Z,70.05
2022-09-15T00:23:28.441Z,70.05
2022-09-15T00:24:28.432Z,70.05
2022-09-15T00:25:28.414Z,70.05
2022-09-15T00:26:28.404Z,70.05
2022-09-15T00:27:28.390Z,70.05
2022-09-15T00:28:28.400Z,70.05
2022-09-15T00:29:28.361Z,70.05
2022-09-15T00:30:28.386Z,70.05
2022-09-15T00:31:28.405Z,70.05
2022-09-15T00:32:28.322Z,70.05
2022-09-15T00:33:28.306Z,70.05
2022-09-15T00:34:28.299Z,70.05
2022-09-15T00:35:28.280Z,70.05
2022-09-15T00:36:28.267Z,70.05
2022-09-15T00:37:28.252Z,70.05
2022-09-15T00:38:28.241Z,70.05
2022-09-15T00:39:28.225Z,70.05
2022-09-15T00:40:28.350Z,70.05
2022-09-15T00:41:28.212Z,70.05
2022-09-15T00:42:28.187Z,70.05
2022-09-15T00:43:28.173Z,70.05
2022-09-15T00:44:28.242Z,70.05
2022-09-15T00:45:28.188Z,70.05
2022-09-15T00:46:28.134Z,70.05
2022-09-15T00:47:28.118Z,70.05
2022-09-15T00:48:28.106Z,70.05
2022-09-15T00:49:28.092Z,70.05
2022-09-15T00:50:28.078Z,70.05
2022-09-15T00:51:28.063Z,70.05
2022-09-15T00:52:28.052Z,70.05
2022-09-15T00:53:28.037Z,70.05
2022-09-15T00:54:28.025Z,70.05
2022-09-15T00:55:28.010Z,70.05
2022-09-15T00:56:27.998Z,70.05
2022-09-15T00:57:27.984Z,70.05
2022-09-15T00:58:27.971Z,70.05
2022-09-15T00:59:27.957Z,70.05
2022-09-15T01:00:27.980Z,70.05
2022-09-15T01:01:27.985Z,70.05
2022-09-15T01:02:27.960Z,70.05
2022-09-15T01:03:27.902Z,70.05
2022-09-15T01:04:27.891Z,70.05
2022-09-15T01:05:27.876Z,69.95
2022-09-15T01:06:27.863Z,69.95
2022-09-15T01:07:27.848Z,70.05
2022-09-15T01:08:27.835Z,70.05
2022-09-15T01:09:27.819Z,70.05
2022-09-15T01:10:27.808Z,70.05
2022-09-15T01:11:27.792Z,70.05
2022-09-15T01:12:27.781Z,69.95
2022-09-15T01:13:27.767Z,70.05
2022-09-15T01:14:27.754Z,70.05
2022-09-15T01:15:27.737Z,70.05
2022-09-15T01:16:27.829Z,70.05
2022-09-15T01:17:27.710Z,70.05
2022-09-15T01:18:27.703Z,70.05
2022-09-15T01:19:27.683Z,70.05
2022-09-15T01:20:27.671Z,69.95
2022-09-15T01:21:27.657Z,69.95
2022-09-15T01:22:27.645Z,70.05
2022-09-15T01:23:27.631Z,70.05
2022-09-15T01:24:27.619Z,70.05
2022-09-15T01:25:27.603Z,70.05
2022-09-15T01:26:27.592Z,70.05
2022-09-15T01:27:41.585Z,70.05
2022-09-15T01:28:28.604Z,70.05
2022-09-15T01:29:27.550Z,70.05
2022-09-15T01:30:27.539Z,69.95
2022-09-15T01:31:27.666Z,69.95
2022-09-15T01:32:27.534Z,69.95
2022-09-15T01:33:27.513Z,70.05
2022-09-15T01:34:27.497Z,70.05
2022-09-15T01:35:27.470Z,70.05
2022-09-15T01:36:27.457Z,70.05
2022-09-15T01:37:27.443Z,70.05
2022-09-15T01:38:27.432Z,70.05
2022-09-15T01:39:27.416Z,70.05
2022-09-15T01:40:27.471Z,70.05
2022-09-15T01:41:27.391Z,69.95
2022-09-15T01:42:27.379Z,70.05
2022-09-15T01:43:27.366Z,70.05
2022-09-15T01:44:27.355Z,70.05
2022-09-15T01:45:27.406Z,70.05
2022-09-15T01:46:27.326Z,70.05
2022-09-15T01:47:27.315Z,70.05
2022-09-15T01:48:27.323Z,70.05
2022-09-15T01:49:27.285Z,70.05
2022-09-15T01:50:27.274Z,70.05
2022-09-15T01:51:27.259Z,70.05
2022-09-15T01:52:27.248Z,70.05
2022-09-15T01:53:27.233Z,70.05
2022-09-15T01:54:27.220Z,70.05
2022-09-15T01:55:27.207Z,70.05
2022-09-15T01:56:27.194Z,70.05
2022-09-15T01:57:27.180Z,70.05
2022-09-15T01:58:27.167Z,70.05
2022-09-15T01:59:27.154Z,70.05
2022-09-15T02:00:27.140Z,70.05
2022-09-15T02:01:27.264Z,70.05
2022-09-15T02:02:27.233Z,70.05
2022-09-15T02:03:27.099Z,70.05
2022-09-15T02:04:27.113Z,69.95
2022-09-15T02:05:27.072Z,69.95
2022-09-15T02:06:27.059Z,70.05
2022-09-15T02:07:27.045Z,70.05
2022-09-15T02:08:27.034Z,70.05
2022-09-15T02:09:27.029Z,70.05
2022-09-15T02:10:27.006Z,70.05
2022-09-15T02:11:26.992Z,70.05
2022-09-15T02:12:26.980Z,70.05
2022-09-15T02:13:26.965Z,70.05
2022-09-15T02:14:26.953Z,70.05
2022-09-15T02:15:26.940Z,70.05
2022-09-15T02:16:26.981Z,70.05
2022-09-15T02:17:26.910Z,70.05
2022-09-15T02:18:26.900Z,70.05
2022-09-15T02:19:26.885Z,70.05
2022-09-15T02:20:26.976Z,70.05
2022-09-15T02:21:26.859Z,70.05
2022-09-15T02:22:26.850Z,70.05
2022-09-15T02:23:26.839Z,69.95
2022-09-15T02:24:26.816Z,69.95
2022-09-15T02:25:26.805Z,69.95
2022-09-15T02:26:26.790Z,69.95
2022-09-15T02:27:26.778Z,69.95
2022-09-15T02:28:26.764Z,70.05
2022-09-15T02:29:26.753Z,70.05
2022-09-15T02:30:26.739Z,69.95
2022-09-15T02:31:26.758Z,69.95
2022-09-15T02:32:26.712Z,69.95
2022-09-15T02:33:26.701Z,69.95
2022-09-15T02:34:26.687Z,69.95
2022-09-15T02:35:26.672Z,69.95
2022-09-15T02:36:26.682Z,69.95
2022-09-15T02:37:26.647Z,69.95
2022-09-15T02:38:26.633Z,69.95
2022-09-15T02:39:26.618Z,69.95
2022-09-15T02:40:26.658Z,69.95
2022-09-15T02:41:26.591Z,69.95
2022-09-15T02:42:26.576Z,69.95
2022-09-15T02:43:26.564Z,69.95
2022-09-15T02:44:26.554Z,69.95
2022-09-15T02:45:26.577Z,69.95
2022-09-15T02:46:26.521Z,69.95
2022-09-15T02:47:26.512Z,69.95
2022-09-15T02:48:26.495Z,69.95
2022-09-15T02:49:26.485Z,69.95
2022-09-15T02:50:26.470Z,69.95
2022-09-15T02:51:26.460Z,69.95
2022-09-15T02:52:26.506Z,69.95
2022-09-15T02:53:26.432Z,69.95
2022-09-15T02:54:26.418Z,69.95
2022-09-15T02:55:26.407Z,69.95
2022-09-15T02:56:26.392Z,69.95
2022-09-15T02:57:26.383Z,69.95
2022-09-15T02:58:26.365Z,69.95
2022-09-15T02:59:26.355Z,69.95
2022-09-15T03:00:26.351Z,69.95
2022-09-15T03:01:26.367Z,69.95
2022-09-15T03:02:26.357Z,69.95
2022-09-15T03:03:26.302Z,69.95
2022-09-15T03:04:26.285Z,69.95
2022-09-15T03:05:26.273Z,69.95
2022-09-15T03:06:26.259Z,69.95
2022-09-15T03:07:26.248Z,69.95
2022-09-15T03:08:26.255Z,69.95
2022-09-15T03:09:26.221Z,69.95
2022-09-15T03:10:26.205Z,69.95
2022-09-15T03:11:26.223Z,69.85
2022-09-15T03:12:26.178Z,69.95
2022-09-15T03:13:26.168Z,69.95
2022-09-15T03:14:26.151Z,69.95
2022-09-15T03:15:26.138Z,69.95
2022-09-15T03:16:26.201Z,69.95
2022-09-15T03:17:26.115Z,69.95
2022-09-15T03:18:26.097Z,69.95
2022-09-15T03:19:26.086Z,69.95
2022-09-15T03:20:26.072Z,69.95
2022-09-15T03:21:26.092Z,69.95
2022-09-15T03:22:26.045Z,69.95
2022-09-15T03:23:26.034Z,69.95
2022-09-15T03:24:26.059Z,69.95
2022-09-15T03:25:26.012Z,69.95
2022-09-15T03:26:25.994Z,69.95
2022-09-15T03:27:25.979Z,69.85
2022-09-15T03:28:25.964Z,69.95
2022-09-15T03:29:25.954Z,69.85
2022-09-15T03:30:25.936Z,69.85
2022-09-15T03:31:26.029Z,69.85
2022-09-15T03:32:25.910Z,69.85
2022-09-15T03:33:25.897Z,69.85
2022-09-15T03:34:25.883Z,69.95
2022-09-15T03:35:25.872Z,69.95
2022-09-15T03:36:25.855Z,69.85
2022-09-15T03:37:25.844Z,69.85
2022-09-15T03:38:25.828Z,69.95
2022-09-15T03:39:25.816Z,69.95
2022-09-15T03:40:25.887Z,69.95
2022-09-15T03:41:25.790Z,69.95
2022-09-15T03:42:25.776Z,69.95
2022-09-15T03:43:25.764Z,69.95
2022-09-15T03:44:25.750Z,69.95
2022-09-15T03:45:25.779Z,69.95
2022-09-15T03:46:25.722Z,69.95
2022-09-15T03:47:25.709Z,69.95
2022-09-15T03:48:25.696Z,69.85
2022-09-15T03:49:25.683Z,69.85
2022-09-15T03:50:25.669Z,69.85
2022-09-15T03:51:25.657Z,69.85
2022-09-15T03:52:25.642Z,69.85
2022-09-15T03:53:25.630Z,69.85
2022-09-15T03:54:25.615Z,69.85
2022-09-15T03:55:25.613Z,69.85
2022-09-15T03:56:25.614Z,69.85
2022-09-15T03:57:25.577Z,69.85
2022-09-15T03:58:28.945Z,69.85
2022-09-15T03:59:25.575Z,69.85
2022-09-15T04:00:25.536Z,69.85
2022-09-15T04:01:25.523Z,69.85
2022-09-15T04:02:25.545Z,69.85
2022-09-15T04:03:25.496Z,69.75
2022-09-15T04:04:25.480Z,69.85
2022-09-15T04:05:25.470Z,69.85
2022-09-15T04:06:25.456Z,69.85
2022-09-15T04:07:25.441Z,69.85
2022-09-15T04:08:25.428Z,69.85
2022-09-15T04:09:25.417Z,69.85
2022-09-15T04:10:25.401Z,69.85
2022-09-15T04:11:25.390Z,69.85
2022-09-15T04:12:25.400Z,69.85
2022-09-15T04:13:28.580Z,69.85
2022-09-15T04:14:25.350Z,69.75
2022-09-15T04:15:25.335Z,69.85
2022-09-15T04:16:25.378Z,69.85
2022-09-15T04:17:25.309Z,69.85
2022-09-15T04:18:25.295Z,69.75
2022-09-15T04:19:25.283Z,69.85
2022-09-15T04:20:25.268Z,69.75
2022-09-15T04:21:25.257Z,69.75
2022-09-15T04:22:25.243Z,69.75
2022-09-15T04:23:25.232Z,69.75
2022-09-15T04:24:25.218Z,69.75
2022-09-15T04:25:25.205Z,69.75
2022-09-15T04:26:25.189Z,69.85
2022-09-15T04:27:25.178Z,69.75
2022-09-15T04:28:25.189Z,69.75
2022-09-15T04:29:25.152Z,69.75
2022-09-15T04:30:25.139Z,69.75
2022-09-15T04:31:25.254Z,69.75
2022-09-15T04:32:25.112Z,69.78
2022-09-15T04:33:25.099Z,69.75
2022-09-15T04:34:25.085Z,69.75
2022-09-15T04:35:25.074Z,69.75
2022-09-15T04:36:25.057Z,69.75
2022-09-15T04:37:25.048Z,69.78
2022-09-15T04:38:25.032Z,69.75
2022-09-15T04:39:25.021Z,69.75
2022-09-15T04:40:25.077Z,69.75
2022-09-15T04:41:24.993Z,69.75
2022-09-15T04:42:24.981Z,69.65
2022-09-15T04:43:24.967Z,69.75
2022-09-15T04:44:24.980Z,69.65
2022-09-15T04:45:24.943Z,69.75
2022-09-15T04:46:25.003Z,69.65
2022-09-15T04:47:24.916Z,69.65
2022-09-15T04:48:24.900Z,69.65
2022-09-15T04:49:24.889Z,69.65
2022-09-15T04:50:24.875Z,69.65
2022-09-15T04:51:24.862Z,69.65
2022-09-15T04:52:24.846Z,69.65
2022-09-15T04:53:24.833Z,69.65
2022-09-15T04:54:24.818Z,69.65
2022-09-15T04:55:24.808Z,69.65
2022-09-15T04:56:24.794Z,69.75
2022-09-15T04:57:24.780Z,69.75
2022-09-15T04:58:24.766Z,69.78
2022-09-15T04:59:24.753Z,69.75
2022-09-15T05:00:24.762Z,69.75
2022-09-15T05:01:24.808Z,69.78
2022-09-15T05:02:24.763Z,69.75
2022-09-15T05:03:24.701Z,69.78
2022-09-15T05:04:24.686Z,69.75
2022-09-15T05:05:24.679Z,69.78
2022-09-15T05:06:24.697Z,69.75
2022-09-15T05:07:24.649Z,69.78
2022-09-15T05:08:24.632Z,69.78
2022-09-15T05:09:24.642Z,69.78
2022-09-15T05:10:24.638Z,69.65
2022-09-15T05:11:24.593Z,69.68
2022-09-15T05:12:24.579Z,69.65
2022-09-15T05:13:24.574Z,69.65
2022-09-15T05:14:24.556Z,69.65
2022-09-15T05:15:24.542Z,69.68
2022-09-15T05:16:24.738Z,69.68
2022-09-15T05:17:26.777Z,69.68
2022-09-15T05:18:24.498Z,69.68
2022-09-15T05:19:24.488Z,69.65
2022-09-15T05:20:24.469Z,69.68
2022-09-15T05:21:24.458Z,69.68
2022-09-15T05:22:24.443Z,69.68
2022-09-15T05:23:24.433Z,69.58
2022-09-15T05:24:24.416Z,69.68
2022-09-15T05:25:24.405Z,69.58
2022-09-15T05:26:24.388Z,69.68
2022-09-15T05:27:24.377Z,69.68
2022-09-15T05:28:24.362Z,69.68
2022-09-15T05:29:24.352Z,69.68
2022-09-15T05:30:37.796Z,69.68
2022-09-15T05:31:25.481Z,69.68
2022-09-15T05:32:24.392Z,69.68
2022-09-15T05:33:24.296Z,69.68
2022-09-15T05:34:24.284Z,69.68
2022-09-15T05:35:24.271Z,69.68
2022-09-15T05:36:24.258Z,69.78
2022-09-15T05:37:24.243Z,69.68
2022-09-15T05:38:24.228Z,69.68
2022-09-15T05:39:24.217Z,69.78
2022-09-15T05:40:24.237Z,69.78
2022-09-15T05:41:24.189Z,69.78
2022-09-15T05:42:24.173Z,69.78
2022-09-15T05:43:24.161Z,69.78
2022-09-15T05:44:24.147Z,69.78
2022-09-15T05:45:24.137Z,69.78
2022-09-15T05:46:24.145Z,69.88
2022-09-15T05:47:24.111Z,69.78
2022-09-15T05:48:24.117Z,69.78
2022-09-15T05:49:24.081Z,69.78
2022-09-15T05:50:24.067Z,69.78
2022-09-15T05:51:24.056Z,69.88
2022-09-15T05:52:24.042Z,69.88
2022-09-15T05:53:25.035Z,69.88
2022-09-15T05:54:24.018Z,69.88
2022-09-15T05:55:24.004Z,69.88
2022-09-15T05:56:23.988Z,69.88
2022-09-15T05:57:23.976Z,69.88
2022-09-15T05:58:23.963Z,69.88
2022-09-15T05:59:23.952Z,69.98
2022-09-15T06:00:23.937Z,69.98
2022-09-15T06:01:23.992Z,69.98
2022-09-15T06:02:24.018Z,69.98
2022-09-15T06:03:28.707Z,69.98
2022-09-15T06:04:24.950Z,69.98
2022-09-15T06:05:23.874Z,69.98
2022-09-15T06:06:23.858Z,70.08
2022-09-15T06:07:23.846Z,70.08
2022-09-15T06:08:23.834Z,70.08
2022-09-15T06:09:23.822Z,70.08
2022-09-15T06:10:23.807Z,70.08
2022-09-15T06:11:23.795Z,70.08
2022-09-15T06:12:23.782Z,70.08
2022-09-15T06:13:23.770Z,70.08
2022-09-15T06:14:23.756Z,70.08
2022-09-15T06:15:23.742Z,70.08
2022-09-15T06:16:23.813Z,70.08
2022-09-15T06:17:23.712Z,70.08
2022-09-15T06:18:23.698Z,70.08
2022-09-15T06:19:23.689Z,69.98
2022-09-15T06:20:23.970Z,69.98
2022-09-15T06:21:23.667Z,69.98
2022-09-15T06:22:23.647Z,69.88
2022-09-15T06:23:23.637Z,69.88
2022-09-15T06:24:23.620Z,69.88
2022-09-15T06:25:23.609Z,69.88
2022-09-15T06:26:23.613Z,69.88
2022-09-15T06:27:23.588Z,69.88
2022-09-15T06:28:23.570Z,69.78
2022-09-15T06:29:23.560Z,69.78
2022-09-15T06:30:23.545Z,69.78
2022-09-15T06:31:23.552Z,69.78
2022-09-15T06:32:23.517Z,69.68
2022-09-15T06:33:23.506Z,69.68
2022-09-15T06:34:23.492Z,69.68
2022-09-15T06:35:23.481Z,69.58
2022-09-15T06:36:23.492Z,69.58
2022-09-15T06:37:23.454Z,69.58
2022-09-15T06:38:23.443Z,69.58
2022-09-15T06:39:23.429Z,69.58
2022-09-15T06:40:23.460Z,69.58
2022-09-15T06:41:23.405Z,69.48
2022-09-15T06:42:23.392Z,69.34
2022-09-15T06:43:23.378Z,69.34
2022-09-15T06:44:23.366Z,69.25
2022-09-15T06:45:23.352Z,69.25
2022-09-15T06:46:23.418Z,69.14
2022-09-15T06:47:23.327Z,69.14
2022-09-15T06:48:25.147Z,69.14
2022-09-15T06:49:23.299Z,69.14
2022-09-15T06:50:23.291Z,69.14
2022-09-15T06:51:23.276Z,69.04
2022-09-15T06:52:23.291Z,69.04
2022-09-15T06:53:23.249Z,68.94
2022-09-15T06:54:23.243Z,68.84
2022-09-15T06:55:23.224Z,68.84
2022-09-15T06:56:23.217Z,68.84
2022-09-15T06:57:23.198Z,68.84
2022-09-15T06:58:23.189Z,68.74
2022-09-15T06:59:23.174Z,68.74
2022-09-15T07:00:23.164Z,68.74
2022-09-15T07:01:23.147Z,68.64
2022-09-15T07:02:23.305Z,68.64
2022-09-15T07:03:23.219Z,68.64
2022-09-15T07:04:23.114Z,68.64
2022-09-15T07:05:23.097Z,68.64
2022-09-15T07:06:23.087Z,68.54
2022-09-15T07:07:23.074Z,68.54
2022-09-15T07:08:23.183Z,68.44
2022-09-15T07:09:23.048Z,68.34
2022-09-15T07:10:23.037Z,68.13
2022-09-15T07:11:23.025Z,68.04
2022-09-15T07:12:23.008Z,68.04
2022-09-15T07:13:22.997Z,68.13
2022-09-15T07:14:22.985Z,68.13
2022-09-15T07:15:22.972Z,68.13
2022-09-15T07:16:23.016Z,68.04
2022-09-15T07:17:22.943Z,68.13
2022-09-15T07:18:22.933Z,68.13
2022-09-15T07:19:22.916Z,68.13
2022-09-15T07:20:22.907Z,68.13
2022-09-15T07:21:22.892Z,68.13
2022-09-15T07:22:22.880Z,68.04
2022-09-15T07:23:22.864Z,67.93
2022-09-15T07:24:22.878Z,67.93
2022-09-15T07:25:22.838Z,67.93
2022-09-15T07:26:22.825Z,67.93
2022-09-15T07:27:22.813Z,67.93
2022-09-15T07:28:22.798Z,67.93
2022-09-15T07:29:22.783Z,67.84
2022-09-15T07:30:22.771Z,67.84
2022-09-15T07:31:22.843Z,67.84
2022-09-15T07:32:22.746Z,67.84
2022-09-15T07:33:22.729Z,67.84
2022-09-15T07:34:22.722Z,67.84
2022-09-15T07:35:22.703Z,67.73
2022-09-15T07:36:22.701Z,67.84
2022-09-15T07:37:22.677Z,67.84
2022-09-15T07:38:22.664Z,67.84
2022-09-15T07:39:22.650Z,67.84
2022-09-15T07:40:22.780Z,67.93
2022-09-15T07:41:22.627Z,67.93
2022-09-15T07:42:22.613Z,67.93
2022-09-15T07:43:22.598Z,67.93
2022-09-15T07:44:22.584Z,68.04
2022-09-15T07:45:22.603Z,68.04
2022-09-15T07:46:22.560Z,68.04
2022-09-15T07:47:22.544Z,68.13
2022-09-15T07:48:26.308Z,68.13
2022-09-15T07:49:22.519Z,68.13
2022-09-15T07:50:22.555Z,68.13
2022-09-15T07:51:22.495Z,68.13
2022-09-15T07:52:22.486Z,68.13
2022-09-15T07:53:22.467Z,68.13
2022-09-15T07:54:23.142Z,68.24
2022-09-15T07:55:22.448Z,68.24
2022-09-15T07:56:22.458Z,68.24
2022-09-15T07:57:22.416Z,68.24
2022-09-15T07:58:22.402Z,68.24
2022-09-15T07:59:22.393Z,68.24
2022-09-15T08:00:22.441Z,68.24
2022-09-15T08:01:22.712Z,68.24
2022-09-15T08:02:22.405Z,68.24
2022-09-15T08:03:22.360Z,68.24
2022-09-15T08:04:22.327Z,68.13
2022-09-15T08:05:22.312Z,68.13
2022-09-15T08:06:22.302Z,68.13
2022-09-15T08:07:22.290Z,68.13
2022-09-15T08:08:22.276Z,68.04
2022-09-15T08:09:22.411Z,68.04
2022-09-15T08:10:22.349Z,68.04
2022-09-15T08:11:22.233Z,68.04
2022-09-15T08:12:22.292Z,67.93
2022-09-15T08:13:22.209Z,67.93
2022-09-15T08:14:22.195Z,67.93
2022-09-15T08:15:22.190Z,67.93
2022-09-15T08:16:22.266Z,67.93
2022-09-15T08:17:22.160Z,67.84
2022-09-15T08:18:22.164Z,67.93
2022-09-15T08:19:22.137Z,67.93
2022-09-15T08:20:22.126Z,67.84
2022-09-15T08:21:22.153Z,67.84
2022-09-15T08:22:22.101Z,67.84
2022-09-15T08:23:22.079Z,67.84
2022-09-15T08:24:22.071Z,67.84
2022-09-15T08:25:22.054Z,67.73
2022-09-15T08:26:22.043Z,67.73
2022-09-15T08:27:22.030Z,67.73
2022-09-15T08:28:22.040Z,67.73
2022-09-15T08:29:22.004Z,67.73
2022-09-15T08:30:21.995Z,67.73
2022-09-15T08:31:22.009Z,67.73
2022-09-15T08:32:21.972Z,67.63
2022-09-15T08:33:21.951Z,67.63
2022-09-15T08:34:21.940Z,67.63
2022-09-15T08:35:21.925Z,67.63
2022-09-15T08:36:21.915Z,67.63
2022-09-15T08:37:21.899Z,67.63
2022-09-15T08:38:21.887Z,67.63
2022-09-15T08:39:21.874Z,67.63
2022-09-15T08:40:21.915Z,67.63
2022-09-15T08:41:21.845Z,67.53
2022-09-15T08:42:21.834Z,67.53
2022-09-15T08:43:21.820Z,67.53
2022-09-15T08:44:21.839Z,67.43
2022-09-15T08:45:21.793Z,67.43
2022-09-15T08:46:21.841Z,67.43
2022-09-15T08:47:21.770Z,67.43
2022-09-15T08:48:21.763Z,67.33
2022-09-15T08:49:40.959Z,67.33
2022-09-15T08:50:22.767Z,67.23
2022-09-15T08:51:21.715Z,67.23
2022-09-15T08:52:21.701Z,67.23
2022-09-15T08:53:21.686Z,67.33
2022-09-15T08:54:21.673Z,67.33
2022-09-15T08:55:21.659Z,67.33
2022-09-15T08:56:21.647Z,67.33
2022-09-15T08:57:21.634Z,67.33
2022-09-15T08:58:21.621Z,67.33
2022-09-15T08:59:21.609Z,67.33
2022-09-15T09:00:21.619Z,67.33
2022-09-15T09:01:21.623Z,67.43
2022-09-15T09:02:21.595Z,67.33
2022-09-15T09:03:21.553Z,67.33
2022-09-15T09:04:21.542Z,67.33
2022-09-15T09:05:21.528Z,67.33
2022-09-15T09:06:21.516Z,67.33
2022-09-15T09:07:21.501Z,67.23
2022-09-15T09:08:21.490Z,67.23
2022-09-15T09:09:21.475Z,67.23
2022-09-15T09:10:21.464Z,67.23
2022-09-15T09:11:21.464Z,67.23
2022-09-15T09:12:21.441Z,67.23
2022-09-15T09:13:21.422Z,67.23
2022-09-15T09:14:21.410Z,67.23
2022-09-15T09:15:21.395Z,67.23
2022-09-15T09:16:21.436Z,67.33
2022-09-15T09:17:21.370Z,67.23
2022-09-15T09:18:21.358Z,67.23
2022-09-15T09:19:21.344Z,67.23
2022-09-15T09:20:21.337Z,67.13
2022-09-15T09:21:21.318Z,67.13
2022-09-15T09:22:21.312Z,67.23
2022-09-15T09:23:21.291Z,67.23
2022-09-15T09:24:21.279Z,67.23
2022-09-15T09:25:27.652Z,67.23
2022-09-15T09:26:22.292Z,67.23
2022-09-15T09:27:21.238Z,67.23
2022-09-15T09:28:21.227Z,67.33
2022-09-15T09:29:21.215Z,67.33
2022-09-15T09:30:21.201Z,67.33
2022-09-15T09:31:21.256Z,67.33
2022-09-15T09:32:21.970Z,67.33
2022-09-15T09:33:21.161Z,67.33
2022-09-15T09:34:21.151Z,67.33
2022-09-15T09:35:21.136Z,67.33
2022-09-15T09:36:21.125Z,67.33
2022-09-15T09:37:21.111Z,67.33
2022-09-15T09:38:21.102Z,67.33
2022-09-15T09:39:21.087Z,67.33
2022-09-15T09:40:21.127Z,67.23
2022-09-15T09:41:21.065Z,67.23
2022-09-15T09:42:21.056Z,67.23
2022-09-15T09:43:21.035Z,67.23
2022-09-15T09:44:21.025Z,67.23
2022-09-15T09:45:21.011Z,67.23
2022-09-15T09:46:21.074Z,67.23
2022-09-15T09:47:20.986Z,67.23
2022-09-15T09:48:20.999Z,67.23
2022-09-15T09:49:20.965Z,67.23
2022-09-15T09:50:20.948Z,67.13
2022-09-15T09:51:20.933Z,67.23
2022-09-15T09:52:22.076Z,67.23
2022-09-15T09:53:20.909Z,67.23
2022-09-15T09:54:20.898Z,67.23
2022-09-15T09:55:20.879Z,67.23
2022-09-15T09:56:20.867Z,67.23
2022-09-15T09:57:20.853Z,67.13
2022-09-15T09:58:20.843Z,67.13
2022-09-15T09:59:20.828Z,67.02
2022-09-15T10:00:20.815Z,67.02
2022-09-15T10:01:20.893Z,67.02
2022-09-15T10:02:20.789Z,67.02
2022-09-15T10:03:20.775Z,67.02
2022-09-15T10:04:20.805Z,67.02
2022-09-15T10:05:20.752Z,66.93
2022-09-15T10:06:20.736Z,67.02
2022-09-15T10:07:20.721Z,67.02
2022-09-15T10:08:20.709Z,67.02
2022-09-15T10:09:20.695Z,67.02
2022-09-15T10:10:20.679Z,67.02
2022-09-15T10:11:20.663Z,67.02
2022-09-15T10:12:20.654Z,67.02
2022-09-15T10:13:20.639Z,66.93
2022-09-15T10:14:20.627Z,66.93
2022-09-15T10:15:20.612Z,66.82
2022-09-15T10:16:20.692Z,67.02
2022-09-15T10:17:20.590Z,66.93
2022-09-15T10:18:20.576Z,66.93
2022-09-15T10:19:20.561Z,66.93
2022-09-15T10:20:20.573Z,66.93
2022-09-15T10:21:20.534Z,66.93
2022-09-15T10:22:20.523Z,66.82
2022-09-15T10:23:20.507Z,66.82
2022-09-15T10:24:20.496Z,66.69
2022-09-15T10:25:20.489Z,66.69
2022-09-15T10:26:20.468Z,66.59
2022-09-15T10:27:20.452Z,66.59
2022-09-15T10:28:20.492Z,66.59
2022-09-15T10:29:20.427Z,66.49
2022-09-15T10:30:20.412Z,66.59
2022-09-15T10:31:20.453Z,66.49
2022-09-15T10:32:24.841Z,66.49
2022-09-15T10:33:20.370Z,66.59
2022-09-15T10:34:20.359Z,66.49
2022-09-15T10:35:20.342Z,66.59
2022-09-15T10:36:20.355Z,66.49
2022-09-15T10:37:20.314Z,66.49
2022-09-15T10:38:20.302Z,66.19
2022-09-15T10:39:20.292Z,66.29
2022-09-15T10:40:20.386Z,66.49
2022-09-15T10:41:20.264Z,66.49
2022-09-15T10:42:20.251Z,66.39
2022-09-15T10:43:20.235Z,66.19
2022-09-15T10:44:20.227Z,66.29
2022-09-15T10:45:20.208Z,66.19
2022-09-15T10:46:20.293Z,66.09
2022-09-15T10:47:20.181Z,66.19
2022-09-15T10:48:20.170Z,65.99
2022-09-15T10:49:20.155Z,65.99
2022-09-15T10:50:20.146Z,66.09
2022-09-15T10:51:20.128Z,66.09
2022-09-15T10:52:20.148Z,66.19
2022-09-15T10:53:20.104Z,65.99
2022-09-15T10:54:20.093Z,65.89
2022-09-15T10:55:32.078Z,65.89
2022-09-15T10:56:21.101Z,65.78
2022-09-15T10:57:20.126Z,65.78
2022-09-15T10:58:20.038Z,65.69
2022-09-15T10:59:20.025Z,65.69
2022-09-15T11:00:20.010Z,65.58
2022-09-15T11:01:20.126Z,65.49
2022-09-15T11:02:20.037Z,65.49
2022-09-15T11:03:19.974Z,65.49
2022-09-15T11:04:19.956Z,65.49
2022-09-15T11:05:22.655Z,65.58
2022-09-15T11:06:19.930Z,65.58
2022-09-15T11:07:19.916Z,65.49
2022-09-15T11:08:19.937Z,65.38
2022-09-15T11:09:19.892Z,65.28
2022-09-15T11:10:19.879Z,65.49
2022-09-15T11:11:19.864Z,65.49
2022-09-15T11:12:19.852Z,65.38
2022-09-15T11:13:19.841Z,65.08
2022-09-15T11:14:19.824Z,65.49
2022-09-15T11:15:19.817Z,65.18
2022-09-15T11:16:19.872Z,65.18
2022-09-15T11:17:19.785Z,65.18
2022-09-15T11:18:19.771Z,64.78
2022-09-15T11:19:19.761Z,65.28
2022-09-15T11:20:19.746Z,65.08
2022-09-15T11:21:19.734Z,65.58
2022-09-15T11:22:19.743Z,65.38
2022-09-15T11:23:19.712Z,65.49
2022-09-15T11:24:19.719Z,65.58
2022-09-15T11:25:19.680Z,65.38
2022-09-15T11:26:19.675Z,65.69
2022-09-15T11:27:19.655Z,65.38
2022-09-15T11:28:19.640Z,65.69
2022-09-15T11:29:19.631Z,64.88
2022-09-15T11:30:19.616Z,65.58
2022-09-15T11:31:19.682Z,65.49
2022-09-15T11:32:19.637Z,65.38
2022-09-15T11:33:19.580Z,65.49
2022-09-15T11:34:19.568Z,65.38
2022-09-15T11:35:19.553Z,65.38
2022-09-15T11:36:19.537Z,64.58
2022-09-15T11:37:19.529Z,65.38
2022-09-15T11:38:19.512Z,64.68
2022-09-15T11:39:19.506Z,64.88
2022-09-15T11:40:19.559Z,64.51
2022-09-15T11:41:19.474Z,64.78
2022-09-15T11:42:19.602Z,65.28
2022-09-15T11:43:19.448Z,64.17
2022-09-15T11:44:19.434Z,64.88
2022-09-15T11:45:19.422Z,64.78
2022-09-15T11:46:19.453Z,64.78
2022-09-15T11:47:19.398Z,64.78
2022-09-15T11:48:19.383Z,64.88
2022-09-15T11:49:19.372Z,64.88
2022-09-15T11:50:19.358Z,64.88
2022-09-15T11:51:19.346Z,64.68
2022-09-15T11:52:19.331Z,64.78
2022-09-15T11:53:19.325Z,64.48
2022-09-15T11:54:19.303Z,64.27
2022-09-15T11:55:19.293Z,64.68
2022-09-15T11:56:19.300Z,64.68
2022-09-15T11:57:19.265Z,64.37
2022-09-15T11:58:22.010Z,64.48
2022-09-15T11:59:19.238Z,64.48
2022-09-15T12:00:19.226Z,64.17
2022-09-15T12:01:19.211Z,63.26
2022-09-15T12:02:19.353Z,62.96
2022-09-15T12:03:19.337Z,62.56
2022-09-15T12:04:19.170Z,63.97
2022-09-15T12:05:19.545Z,62.26
2022-09-15T12:06:19.143Z,63.06
2022-09-15T12:07:19.133Z,63.47
2022-09-15T12:08:19.117Z,62.96
2022-09-15T12:09:19.106Z,64.07
2022-09-15T12:10:19.101Z,64.48
2022-09-15T12:11:19.074Z,63.26
2022-09-15T12:12:19.312Z,63.67
2022-09-15T12:13:19.048Z,64.27
2022-09-15T12:14:19.036Z,63.47
2022-09-15T12:15:19.026Z,63.77
2022-09-15T12:16:19.070Z,63.87
2022-09-15T12:17:18.997Z,62.46
2022-09-15T12:18:34.850Z,62.16
2022-09-15T12:19:20.022Z,62.56
2022-09-15T12:20:18.954Z,62.36
2022-09-15T12:21:18.943Z,62.06
2022-09-15T12:22:18.927Z,61.96
2022-09-15T12:23:18.916Z,62.56
2022-09-15T12:24:18.900Z,62.46
2022-09-15T12:25:18.890Z,62.26
2022-09-15T12:26:18.873Z,62.36
2022-09-15T12:27:18.863Z,62.16
2022-09-15T12:28:18.949Z,62.46
2022-09-15T12:29:18.836Z,63.06
2022-09-15T12:30:18.820Z,63.06
2022-09-15T12:31:18.886Z,63.06
2022-09-15T12:32:18.796Z,62.86
2022-09-15T12:33:18.783Z,62.86
2022-09-15T12:34:18.771Z,62.86
2022-09-15T12:35:18.757Z,62.56
2022-09-15T12:36:18.741Z,62.16
2022-09-15T12:37:18.730Z,62.36
2022-09-15T12:38:18.714Z,62.76
2022-09-15T12:39:18.704Z,61.76
2022-09-15T12:40:18.725Z,62.76
2022-09-15T12:41:18.683Z,62.66
2022-09-15T12:42:18.671Z,62.66
2022-09-15T12:43:18.650Z,62.26
2022-09-15T12:44:18.659Z,62.26
2022-09-15T12:45:18.625Z,62.46
2022-09-15T12:46:18.725Z,62.06
2022-09-15T12:47:18.598Z,62.26
2022-09-15T12:48:18.582Z,62.06
2022-09-15T12:49:18.570Z,62.46
2022-09-15T12:50:18.556Z,61.56
2022-09-15T12:51:18.543Z,62.26
2022-09-15T12:52:18.529Z,61.65